Thurston, OH (43157)

2:07 AM EDT on July 28, 2016 (GMT -0400)
Millersport | | Change Station

Elev 896 ft 39.90 °N, 82.53 °W | Updated 11 minutes ago

Partly Cloudy
Partly Cloudy
75.4 °F
Feels Like 76 °F
N
0.0
Wind Variable Wind from North

Today
High -- | Low -- °F
--% Chance of Precip.
Yesterday
High -- | Low -- °F
Precip. -- in
Pressure 29.92 in
Visibility 10.0 miles
Clouds Few 4700 ft
Heat Index 76 °F
Dew Point 69 °F
Humidity 80%
Rainfall 0.00 in
Snow Depth Not available.
6:25 AM 8:47 PM
Waning Crescent, 35% visible
METAR KLHQ 280553Z AUTO 00000KT 10SM FEW047 24/23 A2994 RMK AO2 SLP130 T02390228 10289 20233 57005
Pressure 29.92 in
Visibility 10.0 miles
Clouds Few 4700 ft
Heat Index 76 °F
Dew Point 69 °F
Humidity 80%
Rainfall 0.00 in
Snow Depth Not available.
6:25 AM 8:47 PM
Waning Crescent, 35% visible
METAR KLHQ 280553Z AUTO 00000KT 10SM FEW047 24/23 A2994 RMK AO2 SLP130 T02390228 10289 20233 57005

10-Day Weather Forecast

Almanac

Astronomy

Jul. 28, 2016 Rise Set
Actual Time
Civil Twilight
Nautical Twilight
Astronomical Twilight
Moon
Length of Visible Light
Length of Day
Tomorrow will be .
, % of the Moon is Illuminated

Today's Extremes

State Highs State Lows

Community

WunderPhotos

Upload Photos

1,928,064 photos uploaded!

WunderBlog® & News

Nearby

Air Quality

  Air Quality AQ Index Pollutant
Not available.

Snow Depth

Station Depth Elevation

Earthquake Activity

City Distance Mag. Time & Date
Minimum magnitude displayed is 2.5.

Coastal Water Temperatures

Place Temperature

Stations

Nearby Weather Stations

Station Location Temp. Windchill Dew Point Humidity Wind Precip. Elev Updated Type
                   

Watches & Warnings

There are currently no watches in effect.